• Join FlightAware (Why Join?)
  • Login
  • US Flag 
01:46PM EDT


 

Airport Tracker/Info


-or-


 

Live Flight TrackerFlight Track Log ✈ SWA2236 ✈ 14-Jul-2013 ✈ KBWI - KALB

Flight Track Log - Related Links

Times and Time Zones

All times are in EDT time to prevent confusion due to time zone crossing. See the SWA2236 flight status page for this flight to view local times or setup timezone preferences in your user account.

Time Position Orientation Groundspeed Altitude Reporting Facility
EDT Latitude Longitude Course Direction KTS MPH feet Rate Location/Type
10:59PM 39.1500 -76.7333 284° West 198 228 3,000  Level Potomac TRACON
11:01PM 39.1344 -76.5736 97° East 187 215 9,900 2,640 Climbing Washington Center
11:02PM 39.1394 -76.4772 86° East 219 252 11,800 2,160 Climbing Washington Center
11:03PM 39.1444 -76.3517 87° East 289 333 14,300 2,820 Climbing Washington Center
11:04PM 39.1562 -76.5809 284° West  Level FlightAware Approximate
11:04PM 39.1494 -76.2178 87° East 336 387 17,500  Level Washington Center
11:05PM 39.1686 -76.0817 80° East 365 420 19,800 2,400 Climbing Washington Center
11:06PM 39.1839 -75.9397 82° East 385 443 22,400 1,560 Climbing Washington Center
11:07PM 39.2342 -75.8194 62° Northeast 378 435 23,000 300 Climbing Washington Center
11:08PM 39.3156 -75.7203 43° Northeast 378 435 23,000 240 Level Washington Center
11:09PM 39.3928 -75.6211 45° Northeast 384 442 23,500 1,380 Climbing Washington Center
11:10PM 39.4719 -75.5189 45° Northeast 390 449 25,900 1,680 Climbing Washington Center
11:11PM 39.5531 -75.4139 45° Northeast 396 456 27,000 540 Climbing Washington Center
11:12PM 39.6319 -75.3114 45° Northeast 396 456 27,000 660 Level Washington Center
11:13PM 39.7047 -75.2086 47° Northeast 396 456 28,400 900 Climbing Washington Center
11:14PM 39.7997 -75.0697 48° Northeast 399 459 29,000 240 Climbing New York Center
11:15PM 39.8742 -74.9661 47° Northeast 394 453 29,000  Level New York Center
11:16PM 39.9467 -74.8622 48° Northeast 394 453 29,000  Level New York Center
11:17PM 40.0389 -74.7889 31° Northeast 385 443 29,000  Level New York Center
11:18PM 40.1339 -74.7536 16° North 384 442 29,000  Level New York Center
11:19PM 40.2544 -74.7036 18° North 394 453 29,000  Level New York Center
11:20PM 40.3578 -74.6631 17° North 394 453 29,000  Level New York Center
11:21PM 40.4633 -74.6256 15° North 394 453 29,000  Level New York Center
11:22PM 40.5686 -74.5850 16° North 394 453 29,000  Level New York Center
11:23PM 40.6744 -74.5417 17° North 394 453 29,000  Level New York Center
11:24PM 40.7797 -74.5008 16° North 394 453 29,000 -360 Level New York Center
11:25PM 40.8853 -74.4600 16° North 389 448 28,300 -900 Descending New York Center
11:26PM 40.9886 -74.4189 17° North 384 442 27,300 -960 Descending New York Center
11:27PM 41.0981 -74.3781 16° North 384 442 26,400 -480 Descending New York Center
11:29PM 41.3139 -74.2917 17° North 402 463 26,000 -180 Descending Boston Center
11:30PM 41.4272 -74.2481 16° North 402 463 26,000  Level Boston Center
11:31PM 41.5406 -74.2067 15° North 407 468 26,000 -1,200 Level Boston Center
11:32PM 41.6517 -74.1597 18° North 412 474 23,600 -2,280 Descending Boston Center
11:33PM 41.7606 -74.1183 16° North 410 472 21,500 -2,100 Descending Boston Center
11:34PM 41.8528 -74.0844 15° North 378 435 19,500 -2,220 Descending Boston Center
11:35PM 41.9261 -74.0558 16° North 364 419 17,800 -2,100 Descending Boston Center
11:36PM 42.0394 -74.0083 17° North 355 409 15,400 -2,400 Descending Boston Center
11:37PM 42.1400 -73.9689 16° North 344 396 12,300 -2,400 Descending Boston Center
11:38PM 42.2175 -73.9342 18° North 339 390 10,600 -1,860 Descending Boston Center
11:39PM 42.2972 -73.9053 15° North 277 319 8,800 -2,040 Descending Boston Center
11:40PM 42.3725 -73.8733 17° North 270 311 6,700 -1,920 Descending Boston Center
11:41PM 42.4417 -73.8467 16° North 262 302 5,000 -1,380 Descending Boston Center
11:42PM 42.5047 -73.8172 19° North 230 265 4,000 -1,020 Descending Boston Center
11:43PM 42.5631 -73.7989 13° North 219 252 3,000 -840 Descending Boston Center
11:44PM 42.6131 -73.8056 354° North 155 178 2,300 -600 Descending Boston Center
11:45PM 42.6569 -73.8008 North 155 178 1,800 -660 Descending Boston Center
11:46PM 42.6964 -73.8044 356° North 134 154 1,000 -780 Descending Boston Center
11:47PM 42.7361 -73.8111 353° North 132 152 300 -720 Descending Boston Center